Terminal Aerodrome Forecast
Issued by NWS Austin/San Antonio, TX

Home | Current Version | Previous Version | Text Only | Print | Product List | Glossary On
Versions: 1 2 3 4 5 6 7 8 9 10 11 12 13
000
FTUS44 KEWX 240520
TAFSAT
TAF
KSAT 240520Z 2406/2512 13007KT P6SM SKC
     FM240800 VRB03KT 3SM BR SCT008
     FM241000 33008KT P6SM FEW250
     FM241700 33013G23KT P6SM FEW250
     FM242300 33008KT P6SM SKC=

USA.gov is the U.S. government's official web portal to all federal, state and local government web resources and services.